createdAt,value
2019-02-20T00:01:01.363Z,95946.89
2019-02-20T00:03:30.571Z,95952.88
2019-02-20T00:06:00.032Z,95964.50
2019-02-20T00:08:29.224Z,95959.16
2019-02-20T00:10:58.476Z,95957.97
2019-02-20T00:13:27.679Z,95952.79
2019-02-20T00:15:56.930Z,95947.67
2019-02-20T00:18:26.176Z,95948.70
2019-02-20T00:20:55.468Z,95951.90
2019-02-20T00:23:24.679Z,95952.28
2019-02-20T00:25:54.232Z,95957.20
2019-02-20T00:28:23.463Z,95957.59
2019-02-20T00:30:56.310Z,95954.77
2019-02-20T00:33:25.615Z,95944.55
2019-02-20T00:35:54.891Z,95948.86
2019-02-20T00:38:24.169Z,95953.55
2019-02-20T00:40:53.407Z,95957.67
2019-02-20T00:43:22.623Z,95951.65
2019-02-20T00:46:20.746Z,95956.84
2019-02-20T00:48:54.699Z,95959.23
2019-02-20T00:51:48.214Z,95955.95
2019-02-20T00:54:17.431Z,95953.25
2019-02-20T00:56:46.752Z,95949.41
2019-02-20T00:59:16.947Z,95954.85
2019-02-20T01:01:46.412Z,95952.68
2019-02-20T01:04:15.625Z,95952.34
2019-02-20T01:06:45.394Z,95953.47
2019-02-20T01:09:14.623Z,95953.67
2019-02-20T01:11:43.831Z,95956.57
2019-02-20T01:14:13.108Z,95961.76
2019-02-20T01:16:42.364Z,95966.11
2019-02-20T01:19:11.919Z,95956.27
2019-02-20T01:21:41.145Z,95957.25
2019-02-20T01:24:10.394Z,95955.36
2019-02-20T01:26:39.602Z,95955.27
2019-02-20T01:29:08.872Z,95955.27
2019-02-20T01:31:38.088Z,95960.11
2019-02-20T01:34:07.395Z,95958.70
2019-02-20T01:36:37.699Z,95958.55
2019-02-20T01:39:07.771Z,95957.60
2019-02-20T01:41:37.269Z,95954.66
2019-02-20T01:44:06.537Z,95954.25
2019-02-20T01:46:37.018Z,95952.57
2019-02-20T01:49:06.229Z,95949.71
2019-02-20T01:51:35.441Z,95950.70
2019-02-20T01:54:04.725Z,95953.98
2019-02-20T01:56:34.009Z,95948.57
2019-02-20T01:59:05.619Z,95948.42
2019-02-20T02:01:34.919Z,95952.30
2019-02-20T02:04:07.904Z,95941.70
2019-02-20T02:06:37.245Z,95950.93
2019-02-20T02:09:08.045Z,95950.86
2019-02-20T02:11:37.253Z,95950.12
2019-02-20T02:14:06.540Z,95946.41
2019-02-20T02:16:35.748Z,95947.84
2019-02-20T02:19:05.026Z,95947.88
2019-02-20T02:21:34.283Z,95943.69
2019-02-20T02:24:03.626Z,95938.36
2019-02-20T02:26:32.874Z,95933.23
2019-02-20T02:29:02.165Z,95930.03
2019-02-20T02:31:31.689Z,95937.43
2019-02-20T02:34:01.060Z,95943.77
2019-02-20T02:36:30.306Z,95937.59
2019-02-20T02:38:59.612Z,95931.15
2019-02-20T02:55:52.654Z,95933.23
2019-02-20T02:58:22.243Z,95938.05
2019-02-20T03:00:51.505Z,95943.34
2019-02-20T03:03:20.719Z,95943.19
2019-02-20T03:05:50.014Z,95940.87
2019-02-20T03:08:19.205Z,95940.95
2019-02-20T03:10:48.473Z,95940.07
2019-02-20T03:13:17.692Z,95946.09
2019-02-20T03:15:46.969Z,95947.55
2019-02-20T03:18:16.191Z,95946.77
2019-02-20T03:20:45.447Z,95945.21
2019-02-20T03:23:14.962Z,95950.23
2019-02-20T03:25:44.228Z,95939.88
2019-02-20T03:28:13.446Z,95931.98
2019-02-20T03:30:51.753Z,95927.69
2019-02-20T03:33:20.972Z,95944.38
2019-02-20T03:35:50.261Z,95949.41
2019-02-20T03:38:29.662Z,95956.30
2019-02-20T03:40:50.467Z,95961.45
2019-02-20T03:43:59.061Z,95955.78
2019-02-20T03:46:28.364Z,95956.61
2019-02-20T03:48:57.585Z,95957.33
2019-02-20T03:51:26.879Z,95955.27
2019-02-20T03:53:56.115Z,95953.41
2019-02-20T03:56:45.793Z,95960.77
2019-02-20T03:59:15.047Z,95963.31
2019-02-20T04:01:44.312Z,95966.52
2019-02-20T04:04:13.524Z,95963.78
2019-02-20T04:06:42.777Z,95969.34
2019-02-20T04:09:11.983Z,95972.64
2019-02-20T04:11:41.268Z,95967.95
2019-02-20T04:14:10.480Z,95969.63
2019-02-20T04:16:39.766Z,95976.18
2019-02-20T04:19:08.984Z,95974.71
2019-02-20T04:21:38.262Z,95976.33
2019-02-20T04:24:07.814Z,95975.79
2019-02-20T04:34:38.692Z,95973.78
2019-02-20T04:37:08.002Z,95971.27
2019-02-20T04:39:37.209Z,95976.09
2019-02-20T04:42:06.490Z,95973.16
2019-02-20T04:44:35.690Z,95968.78
2019-02-20T04:47:04.960Z,95972.56
2019-02-20T04:49:34.188Z,95974.76
2019-02-20T04:52:03.463Z,95975.56
2019-02-20T04:54:32.689Z,95970.05
2019-02-20T04:57:02.007Z,95965.83
2019-02-20T04:59:31.239Z,95973.04
2019-02-20T05:02:00.500Z,95972.86
2019-02-20T05:04:30.002Z,95976.63
2019-02-20T05:06:59.598Z,95977.74
2019-02-20T05:09:28.897Z,95969.77
2019-02-20T05:28:30.626Z,95985.77
2019-02-20T05:31:00.139Z,95981.36
2019-02-20T05:42:00.336Z,95990.59
2019-02-20T05:44:30.575Z,95992.81
2019-02-20T05:46:59.831Z,95991.45
2019-02-20T05:49:29.066Z,95998.92
2019-02-20T05:51:58.309Z,96003.74
2019-02-20T05:54:34.067Z,95996.95
2019-02-20T05:56:58.564Z,95997.70
2019-02-20T05:59:27.778Z,96002.46
2019-02-20T06:01:57.065Z,96006.44
2019-02-20T06:07:33.641Z,95992.00
2019-02-20T06:10:02.855Z,96003.33
2019-02-20T06:12:32.136Z,96004.27
2019-02-20T06:15:01.358Z,96002.22
2019-02-20T06:17:30.602Z,96003.25
2019-02-20T06:20:00.308Z,96005.97
2019-02-20T06:22:29.604Z,96010.86
2019-02-20T06:24:58.816Z,96008.50
2019-02-20T06:30:51.121Z,96024.05
2019-02-20T06:33:20.445Z,96033.18
2019-02-20T06:35:49.676Z,96036.14
2019-02-20T06:38:18.989Z,96041.02
2019-02-20T06:40:48.214Z,96046.63
2019-02-20T06:43:17.480Z,96049.79
2019-02-20T06:45:46.692Z,96045.44
2019-02-20T06:48:15.993Z,96043.59
2019-02-20T06:50:45.233Z,96050.16
2019-02-20T06:53:14.544Z,96052.66
2019-02-20T06:55:44.016Z,96048.53
2019-02-20T06:58:13.333Z,96047.96
2019-02-20T07:00:42.962Z,96047.05
2019-02-20T07:06:25.769Z,96060.91
2019-02-20T07:12:44.746Z,96060.52
2019-02-20T07:15:52.091Z,96065.95
2019-02-20T07:19:00.828Z,96072.69
2019-02-20T07:22:08.220Z,96068.26
2019-02-20T07:25:16.859Z,96066.97
2019-02-20T07:28:24.290Z,96074.73
2019-02-20T07:30:53.567Z,96078.33
2019-02-20T07:36:02.084Z,96087.30
2019-02-20T07:38:32.841Z,96084.04
2019-02-20T07:41:03.658Z,96089.67
2019-02-20T07:43:32.876Z,96090.16
2019-02-20T07:46:02.515Z,96087.73
2019-02-20T07:48:31.782Z,96088.86
2019-02-20T07:51:00.994Z,96094.30
2019-02-20T07:53:30.283Z,96087.44
2019-02-20T07:56:00.140Z,96093.45
2019-02-20T07:58:29.612Z,96085.53
2019-02-20T08:03:55.534Z,96101.06
2019-02-20T08:06:25.131Z,96102.61
2019-02-20T08:08:54.762Z,96100.97
2019-02-20T08:11:24.239Z,96099.30
2019-02-20T08:19:58.713Z,96102.60
2019-02-20T08:22:27.969Z,96100.17
2019-02-20T08:24:57.311Z,96102.59
2019-02-20T08:27:26.674Z,96111.45
2019-02-20T08:29:55.981Z,96113.14
2019-02-20T08:32:25.247Z,96107.77
2019-02-20T08:34:54.547Z,96107.11
2019-02-20T08:37:23.851Z,96108.86
2019-02-20T08:39:53.800Z,96106.44
2019-02-20T08:42:23.071Z,96106.33
2019-02-20T08:44:52.889Z,96103.06
2019-02-20T08:47:22.190Z,96104.33
2019-02-20T08:49:51.762Z,96092.13
2019-02-20T08:52:21.333Z,96099.33
2019-02-20T08:54:50.695Z,96100.91
2019-02-20T09:02:58.166Z,96103.33
2019-02-20T09:05:27.801Z,96113.70
2019-02-20T09:07:57.050Z,96114.72
2019-02-20T09:10:36.517Z,96123.63
2019-02-20T09:18:44.128Z,96124.21
2019-02-20T09:21:13.467Z,96122.75
2019-02-20T09:23:43.219Z,96130.97
2019-02-20T09:26:32.369Z,96127.61
2019-02-20T09:29:01.656Z,96130.63
2019-02-20T09:31:30.872Z,96131.02
2019-02-20T09:34:00.121Z,96129.46
2019-02-20T09:42:33.257Z,96130.48
2019-02-20T09:45:02.577Z,96131.36
2019-02-20T09:47:31.857Z,96139.31
2019-02-20T09:50:01.525Z,96142.39
2019-02-20T09:52:30.849Z,96144.92
2019-02-20T09:55:00.290Z,96142.97
2019-02-20T09:57:29.697Z,96146.23
2019-02-20T10:00:18.286Z,96134.13
2019-02-20T10:02:47.887Z,96135.14
2019-02-20T10:05:17.632Z,96132.23
2019-02-20T10:07:47.063Z,96134.56
2019-02-20T10:10:16.483Z,96133.27
2019-02-20T10:12:46.318Z,96142.62
2019-02-20T10:15:15.923Z,96142.59
2019-02-20T10:23:24.812Z,96144.94
2019-02-20T10:26:00.902Z,96143.27
2019-02-20T10:28:47.422Z,96143.83
2019-02-20T10:31:17.293Z,96145.02
2019-02-20T10:33:46.628Z,96142.73
2019-02-20T10:36:16.832Z,96141.38
2019-02-20T10:38:46.709Z,96143.02
2019-02-20T10:41:16.181Z,96146.41
2019-02-20T10:43:45.592Z,96141.93
2019-02-20T10:46:15.084Z,96142.73
2019-02-20T10:48:44.525Z,96144.46
2019-02-20T10:51:15.179Z,96136.59
2019-02-20T10:53:44.528Z,96134.04
2019-02-20T10:56:15.928Z,96139.20
2019-02-20T10:58:45.554Z,96139.80
2019-02-20T11:04:19.984Z,96147.48
2019-02-20T11:18:55.237Z,96141.52
2019-02-20T11:21:25.032Z,96147.18
2019-02-20T11:23:54.560Z,96150.03
2019-02-20T11:26:23.951Z,96143.08
2019-02-20T11:28:53.543Z,96146.20
2019-02-20T11:31:22.849Z,96138.62
2019-02-20T11:33:52.115Z,96144.94
2019-02-20T11:36:21.399Z,96145.73
2019-02-20T11:38:53.260Z,96142.47
2019-02-20T11:44:21.260Z,96137.41
2019-02-20T11:46:51.309Z,96138.23
2019-02-20T11:49:24.674Z,96145.61
2019-02-20T11:52:18.490Z,96144.42
2019-02-20T11:57:45.673Z,96145.02
2019-02-20T12:03:17.694Z,96147.19
2019-02-20T12:06:10.560Z,96153.02
2019-02-20T12:08:46.931Z,96148.68
2019-02-20T12:11:24.141Z,96144.13
2019-02-20T12:14:24.526Z,96162.58
2019-02-20T12:19:33.666Z,96152.23
2019-02-20T12:22:03.006Z,96145.22
2019-02-20T12:24:32.947Z,96157.58
2019-02-20T12:27:03.916Z,96153.77
2019-02-20T12:29:33.219Z,96149.06
2019-02-20T12:34:58.523Z,96155.14
2019-02-20T12:37:29.152Z,96153.29
2019-02-20T12:39:58.462Z,96155.66
2019-02-20T12:42:28.616Z,96157.09
2019-02-20T12:44:59.251Z,96152.52
2019-02-20T12:47:28.528Z,96152.87
2019-02-20T12:49:57.743Z,96150.27
2019-02-20T12:52:26.956Z,96153.45
2019-02-20T12:54:56.217Z,96149.59
2019-02-20T12:57:25.571Z,96149.98
2019-02-20T12:59:54.840Z,96145.76
2019-02-20T13:02:24.054Z,96149.22
2019-02-20T13:04:53.325Z,96144.28
2019-02-20T13:07:22.613Z,96146.22
2019-02-20T13:09:51.838Z,96143.11
2019-02-20T13:12:21.396Z,96143.16
2019-02-20T13:14:50.625Z,96141.34
2019-02-20T13:17:19.898Z,96139.20
2019-02-20T13:19:49.420Z,96144.28
2019-02-20T13:22:18.715Z,96138.53
2019-02-20T13:25:07.152Z,96135.50
2019-02-20T13:27:36.429Z,96134.75
2019-02-20T13:30:05.988Z,96138.44
2019-02-20T13:32:35.248Z,96139.75
2019-02-20T13:35:05.122Z,96135.36
2019-02-20T13:37:34.756Z,96138.33
2019-02-20T13:40:04.297Z,96137.17
2019-02-20T13:42:33.935Z,96128.27
2019-02-20T13:51:08.457Z,96133.24
2019-02-20T13:53:46.085Z,96128.75
2019-02-20T13:56:08.918Z,96128.23
2019-02-20T13:58:38.266Z,96132.89
2019-02-20T14:01:07.486Z,96124.36
2019-02-20T14:03:36.772Z,96128.75
2019-02-20T14:06:05.975Z,96132.38
2019-02-20T14:08:35.578Z,96130.48
2019-02-20T14:11:04.849Z,96127.34
2019-02-20T14:13:34.070Z,96129.75
2019-02-20T14:16:03.340Z,96131.40
2019-02-20T14:18:32.589Z,96131.80
2019-02-20T14:21:01.872Z,96135.44
2019-02-20T14:23:31.373Z,96137.68
2019-02-20T14:26:00.939Z,96128.95
2019-02-20T14:28:30.240Z,96134.81
2019-02-20T14:30:59.755Z,96131.16
2019-02-20T14:33:28.944Z,96132.98
2019-02-20T14:35:58.220Z,96133.36
2019-02-20T14:38:27.438Z,96131.22
2019-02-20T14:40:56.740Z,96138.34
2019-02-20T14:43:26.224Z,96130.52
2019-02-20T14:45:55.655Z,96126.83
2019-02-20T14:48:24.959Z,96129.64
2019-02-20T14:50:54.241Z,96118.08
2019-02-20T14:53:23.507Z,96117.44
2019-02-20T14:55:52.817Z,96118.19
2019-02-20T14:58:22.606Z,96116.77
2019-02-20T15:00:51.933Z,96115.00
2019-02-20T15:03:21.192Z,96114.40
2019-02-20T15:05:50.440Z,96110.34
2019-02-20T15:08:19.771Z,96108.91
2019-02-20T15:10:50.762Z,96112.55
2019-02-20T15:13:20.353Z,96107.04
2019-02-20T15:15:50.048Z,96107.34
2019-02-20T15:18:19.964Z,96108.28
2019-02-20T15:20:49.183Z,96108.38
2019-02-20T15:23:18.473Z,96105.67
2019-02-20T15:25:48.406Z,96103.36
2019-02-20T15:28:17.970Z,96103.02
2019-02-20T15:30:47.205Z,96100.41
2019-02-20T15:33:16.490Z,96099.48
2019-02-20T15:35:45.715Z,96104.73
2019-02-20T15:38:15.012Z,96098.34
2019-02-20T15:40:45.003Z,96100.50
2019-02-20T15:43:14.838Z,96106.08
2019-02-20T15:45:44.456Z,96107.14
2019-02-20T15:48:13.869Z,96110.48
2019-02-20T15:50:43.157Z,96109.52
2019-02-20T15:53:12.459Z,96106.33
2019-02-20T15:55:41.685Z,96108.09
2019-02-20T15:58:11.036Z,96110.83
2019-02-20T16:00:41.467Z,96115.34
2019-02-20T16:03:11.566Z,96110.16
2019-02-20T16:05:41.287Z,96116.05
2019-02-20T16:08:10.603Z,96114.39
2019-02-20T16:10:39.813Z,96119.22
2019-02-20T16:13:09.035Z,96124.20
2019-02-20T16:15:38.710Z,96124.95
2019-02-20T16:18:09.112Z,96126.70
2019-02-20T16:20:38.705Z,96129.51
2019-02-20T16:23:08.162Z,96126.78
2019-02-20T16:25:37.929Z,96129.81
2019-02-20T16:28:07.152Z,96128.50
2019-02-20T16:30:38.199Z,96129.68
2019-02-20T16:33:07.454Z,96128.84
2019-02-20T16:35:37.008Z,96130.60
2019-02-20T16:38:06.280Z,96130.67
2019-02-20T16:40:35.572Z,96132.52
2019-02-20T16:43:04.895Z,96137.13
2019-02-20T16:45:36.564Z,96141.35
2019-02-20T16:48:06.238Z,96135.81
2019-02-20T16:50:35.478Z,96139.22
2019-02-20T16:55:39.213Z,96143.75
2019-02-20T16:58:08.630Z,96149.61
2019-02-20T17:00:38.012Z,96156.12
2019-02-20T17:03:07.289Z,96156.75
2019-02-20T17:05:36.511Z,96153.19
2019-02-20T17:08:45.156Z,96163.45
2019-02-20T17:11:14.710Z,96167.47
2019-02-20T17:13:44.016Z,96163.11
2019-02-20T17:16:13.229Z,96174.11
2019-02-20T17:18:42.499Z,96177.58
2019-02-20T17:21:11.740Z,96176.25
2019-02-20T17:23:41.444Z,96174.76
2019-02-20T17:26:50.039Z,96174.18
2019-02-20T17:29:19.581Z,96174.30
2019-02-20T17:32:28.263Z,96177.91
2019-02-20T17:34:57.482Z,96181.41
2019-02-20T17:37:29.107Z,96171.03
2019-02-20T17:39:58.386Z,96181.23
2019-02-20T17:42:27.617Z,96184.15
2019-02-20T17:44:56.907Z,96188.89
2019-02-20T17:47:26.130Z,96192.61
2019-02-20T17:49:55.555Z,96190.67
2019-02-20T17:52:24.975Z,96191.52
2019-02-20T17:54:54.263Z,96191.05
2019-02-20T17:57:23.536Z,96195.88
2019-02-20T17:59:52.809Z,96199.17
2019-02-20T18:02:22.113Z,96205.84
2019-02-20T18:04:51.451Z,96203.27
2019-02-20T18:07:20.672Z,96203.27
2019-02-20T18:09:49.991Z,96200.27
2019-02-20T18:12:19.207Z,96205.44
2019-02-20T18:14:48.581Z,96202.34
2019-02-20T18:17:17.899Z,96203.33
2019-02-20T18:19:47.478Z,96204.86
2019-02-20T18:22:16.713Z,96208.03
2019-02-20T18:24:46.352Z,96204.86
2019-02-20T18:27:15.586Z,96203.20
2019-02-20T18:29:44.873Z,96207.45
2019-02-20T18:32:14.085Z,96212.48
2019-02-20T18:34:43.379Z,96208.59
2019-02-20T18:37:12.617Z,96216.99
2019-02-20T18:39:42.193Z,96213.69
2019-02-20T18:42:11.414Z,96221.03
2019-02-20T18:44:40.740Z,96223.98
2019-02-20T18:47:09.947Z,96224.95
2019-02-20T18:49:39.362Z,96229.84
2019-02-20T18:52:08.658Z,96239.21
2019-02-20T18:54:37.960Z,96241.85
2019-02-20T18:57:07.470Z,96244.75
2019-02-20T18:59:36.862Z,96244.83
2019-02-20T19:02:06.113Z,96243.75
2019-02-20T19:04:35.439Z,96243.48
2019-02-20T19:07:11.211Z,96245.70
2019-02-20T19:09:41.213Z,96252.05
2019-02-20T19:12:32.940Z,96247.54
2019-02-20T19:15:40.791Z,96249.41
2019-02-20T19:18:48.165Z,96257.88
2019-02-20T19:21:39.759Z,96258.58
2019-02-20T19:24:47.085Z,96251.02
2019-02-20T19:27:54.423Z,96261.41
2019-02-20T19:30:48.702Z,96262.75
2019-02-20T19:33:55.981Z,96263.66
2019-02-20T19:37:03.515Z,96268.17
2019-02-20T19:39:39.547Z,96276.16
2019-02-20T19:42:46.914Z,96278.60
2019-02-20T19:45:39.594Z,96274.25
2019-02-20T19:48:46.966Z,96277.22
2019-02-20T19:51:54.281Z,96279.64
2019-02-20T19:54:35.249Z,96282.11
2019-02-20T19:57:28.522Z,96284.42
2019-02-20T20:00:35.955Z,96281.94
2019-02-20T20:03:43.299Z,96287.11
2019-02-20T20:06:50.770Z,96287.27
2019-02-20T20:09:42.795Z,96282.97
2019-02-20T20:12:43.251Z,96282.94
2019-02-20T20:15:50.652Z,96281.19
2019-02-20T20:18:44.059Z,96283.70
2019-02-20T20:21:38.883Z,96288.69
2019-02-20T20:24:46.222Z,96290.92
2019-02-20T20:27:53.477Z,96289.06
2019-02-20T20:31:01.869Z,96288.49
2019-02-20T20:34:09.252Z,96295.15
2019-02-20T20:37:16.554Z,96294.48
2019-02-20T20:40:13.151Z,96297.68
2019-02-20T20:43:08.118Z,96300.03
2019-02-20T20:46:15.471Z,96302.11
2019-02-20T20:49:22.734Z,96306.11
2019-02-20T20:52:24.951Z,96305.82
2019-02-20T20:55:32.254Z,96306.46
2019-02-20T20:58:39.880Z,96302.73
2019-02-20T21:01:47.207Z,96307.80
2019-02-20T21:04:54.761Z,96298.84
2019-02-20T21:08:02.214Z,96304.39
2019-02-20T21:11:04.332Z,96310.16
2019-02-20T21:14:11.659Z,96307.21
2019-02-20T21:17:18.926Z,96307.73
2019-02-20T21:20:13.932Z,96307.20
2019-02-20T21:23:21.199Z,96310.91
2019-02-20T21:26:28.537Z,96306.44
2019-02-20T21:29:28.114Z,96303.19
2019-02-20T21:32:28.723Z,96307.05
2019-02-20T21:35:19.327Z,96310.28
2019-02-20T21:38:27.042Z,96302.30
2019-02-20T21:41:18.376Z,96303.50
2019-02-20T21:44:19.629Z,96310.17
2019-02-20T21:47:12.039Z,96312.44
2019-02-20T21:50:19.303Z,96309.17
2019-02-20T21:53:26.899Z,96310.05
2019-02-20T21:56:34.158Z,96306.94
2019-02-20T21:59:41.557Z,96307.39
2019-02-20T22:02:48.885Z,96305.20
2019-02-20T22:05:40.985Z,96313.92
2019-02-20T22:08:48.303Z,96315.08
2019-02-20T22:11:55.565Z,96317.81
2019-02-20T22:15:02.888Z,96321.21
2019-02-20T22:17:48.373Z,96318.88
2019-02-20T22:20:55.699Z,96324.48
2019-02-20T22:23:46.689Z,96318.69
2019-02-20T22:26:54.003Z,96328.16
2019-02-20T22:29:58.051Z,96330.69
2019-02-20T22:33:05.378Z,96327.77
2019-02-20T22:36:12.644Z,96331.91
2019-02-20T22:42:26.809Z,96334.45
2019-02-20T22:45:34.397Z,96334.11
2019-02-20T22:48:29.034Z,96338.58
2019-02-20T22:51:37.322Z,96340.23
2019-02-20T22:54:35.051Z,96341.74
2019-02-20T22:57:15.781Z,96339.56
2019-02-20T23:00:34.304Z,96336.39
2019-02-20T23:03:34.083Z,96343.59
2019-02-20T23:06:31.765Z,96342.41
2019-02-20T23:09:39.311Z,96343.25
2019-02-20T23:12:33.531Z,96345.70
2019-02-20T23:15:02.715Z,96341.80
2019-02-20T23:20:34.186Z,96346.43
2019-02-20T23:23:03.522Z,96338.23
2019-02-20T23:25:32.772Z,96343.64
2019-02-20T23:28:02.081Z,96337.61
2019-02-20T23:30:31.393Z,96333.73
2019-02-20T23:33:00.847Z,96334.97
2019-02-20T23:35:30.031Z,96336.92
2019-02-20T23:37:59.248Z,96334.52
2019-02-20T23:40:28.593Z,96332.48
2019-02-20T23:42:57.825Z,96334.73
2019-02-20T23:45:27.108Z,96334.13
2019-02-20T23:47:56.620Z,96334.05
2019-02-20T23:50:25.892Z,96341.16
2019-02-20T23:52:55.472Z,96337.83
2019-02-20T23:55:24.820Z,96337.29
2019-02-20T23:57:54.082Z,96339.21
